Time;durP1;ratioP1;P1;durP2;ratioP2;P2;SDS_P1;SDS_P2;PMS_P1;PMS_P2;Temp;Humidity;BMP_temperature;BMP_pressure;BME280_temperature;BME280_humidity;BME280_pressure;Samples;Min_cycle;Max_cycle;Signal;HPM_P1;HPM_P2
2021/07/02 00:01:55;;;;;;;61.35;40.53;;;;;;;16.85;94.79;101265.19;10034310;28;20576;-70
2021/07/02 00:06:53;;;;;;;57.88;40.85;;;;;;;16.79;95.21;101262.66;10049353;28;20075;-72
2021/07/02 00:11:51;;;;;;;70.22;39.85;;;;;;;16.84;94.97;101250.59;10048695;28;20050;-72
2021/07/02 00:16:49;;;;;;;53.67;36.78;;;;;;;16.77;94.91;101264.16;10043321;28;20451;-72
2021/07/02 00:21:47;;;;;;;75.15;38.58;;;;;;;16.74;94.94;101259.31;10043079;28;20142;-72
2021/07/02 00:26:47;;;;;;;62.45;37.63;;;;;;;16.76;94.62;101257.03;10040017;28;20039;-70
2021/07/02 00:31:44;;;;;;;56.53;37.03;;;;;;;16.74;94.89;101248.28;10065087;28;20531;-70
2021/07/02 00:36:41;;;;;;;56.85;37.45;;;;;;;16.74;94.76;101259.31;10073650;28;20437;-70
2021/07/02 00:41:41;;;;;;;66.65;35.90;;;;;;;16.70;94.60;101264.72;10059471;28;20110;-71
2021/07/02 00:46:46;;;;;;;62.05;38.78;;;;;;;16.66;94.63;101257.47;10063926;28;20047;-72
2021/07/02 00:51:46;;;;;;;56.88;38.55;;;;;;;16.59;94.49;101258.88;10064633;28;20091;-70
2021/07/02 00:56:45;;;;;;;77.63;44.15;;;;;;;16.48;94.82;101263.25;10057336;28;20083;-71
2021/07/02 01:01:45;;;;;;;65.32;40.30;;;;;;;16.49;95.13;101264.84;10063785;28;20052;-72
2021/07/02 01:06:45;;;;;;;61.03;37.90;;;;;;;16.40;95.24;101269.66;10052904;28;20428;-72
2021/07/02 01:11:42;;;;;;;66.75;40.28;;;;;;;16.39;94.67;101268.06;10057619;28;20039;-71
2021/07/02 01:16:42;;;;;;;63.55;36.38;;;;;;;16.35;94.79;101258.88;10049703;28;20843;-71
2021/07/02 01:21:41;;;;;;;75.80;36.53;;;;;;;16.31;94.31;101263.44;10065000;28;20139;-73
2021/07/02 01:26:40;;;;;;;55.38;33.10;;;;;;;16.37;94.32;101262.09;10034628;28;20547;-72
2021/07/02 01:31:38;;;;;;;60.75;33.28;;;;;;;16.41;93.94;101260.25;10062190;28;20047;-70
2021/07/02 01:36:35;;;;;;;48.88;29.67;;;;;;;16.39;93.72;101266.09;10047369;28;20547;-70
2021/07/02 01:41:37;;;;;;;58.10;31.50;;;;;;;16.36;93.12;101271.50;10070560;28;20586;-70
2021/07/02 01:46:34;;;;;;;43.67;27.55;;;;;;;16.41;93.38;101268.53;10062476;28;20066;-70
2021/07/02 01:51:36;;;;;;;36.58;24.00;;;;;;;16.33;92.84;101277.72;10062472;28;20052;-70
2021/07/02 01:56:36;;;;;;;39.58;21.63;;;;;;;16.23;91.92;101284.47;10059726;28;20055;-70
2021/07/02 02:07:50;;;;;;;37.10;21.55;;;;;;;16.24;92.02;101282.53;10059197;28;20404;-70
2021/07/02 02:12:48;;;;;;;36.13;21.63;;;;;;;16.29;91.83;101294.16;10048236;28;20407;-73
2021/07/02 02:17:45;;;;;;;35.85;21.55;;;;;;;16.22;91.46;101293.09;10062065;28;20940;-73
2021/07/02 02:22:53;;;;;;;35.00;20.52;;;;;;;16.31;91.49;101293.81;10054030;28;20058;-72
2021/07/02 02:27:50;;;;;;;36.35;21.15;;;;;;;16.18;91.01;101288.28;10064904;28;20157;-73
2021/07/02 02:32:47;;;;;;;34.03;21.75;;;;;;;16.06;89.89;101291.00;10061344;28;20138;-71
2021/07/02 02:37:46;;;;;;;29.35;18.67;;;;;;;15.93;89.42;101297.63;10063484;28;20737;-72
2021/07/02 02:42:45;;;;;;;32.90;19.42;;;;;;;15.98;89.41;101294.66;10056743;28;20052;-70
2021/07/02 02:47:44;;;;;;;34.13;20.35;;;;;;;15.95;89.32;101300.88;10062525;28;20059;-70
2021/07/02 02:52:49;;;;;;;39.53;21.50;;;;;;;15.80;89.83;101310.56;10070265;28;20422;-69
2021/07/02 02:57:50;;;;;;;33.25;19.85;;;;;;;15.86;89.91;101308.41;10062041;28;20134;-70
2021/07/02 03:02:52;;;;;;;31.90;20.48;;;;;;;15.86;89.52;101302.91;10057239;28;20071;-71
2021/07/02 03:08:06;;;;;;;35.47;20.60;;;;;;;15.82;89.66;101324.00;10059121;28;20105;-72
2021/07/02 03:13:08;;;;;;;40.20;22.47;;;;;;;15.71;89.72;101313.41;10066698;28;20531;-73
2021/07/02 03:18:07;;;;;;;38.33;22.58;;;;;;;15.59;90.17;101321.56;10073815;28;20170;-71
2021/07/02 03:23:05;;;;;;;39.65;23.00;;;;;;;15.63;90.41;101316.22;10057122;28;20106;-69
2021/07/02 03:28:10;;;;;;;35.90;23.00;;;;;;;15.69;90.18;101318.44;10053709;28;20054;-70
2021/07/02 03:33:11;;;;;;;39.20;21.98;;;;;;;15.66;90.09;101332.88;10051607;28;20043;-71
2021/07/02 03:38:08;;;;;;;47.10;23.95;;;;;;;15.57;89.92;101329.38;10036900;28;20039;-70
2021/07/02 03:43:07;;;;;;;39.85;22.38;;;;;;;15.54;90.31;101324.53;10043548;28;20048;-72
2021/07/02 03:48:05;;;;;;;43.28;22.05;;;;;;;15.67;90.62;101336.44;10056239;28;20048;-73
2021/07/02 03:53:04;;;;;;;41.67;23.65;;;;;;;15.70;90.66;101338.53;10051686;28;20103;-71
2021/07/02 03:58:03;;;;;;;35.10;21.65;;;;;;;15.66;90.41;101343.09;10051265;28;20074;-72
2021/07/02 04:03:05;;;;;;;39.45;22.45;;;;;;;15.61;90.53;101341.34;10051219;28;20134;-72
2021/07/02 04:13:36;;;;;;;31.73;21.95;;;;;;;15.70;90.01;101355.06;10079873;28;20051;-74
2021/07/02 04:18:42;;;;;;;32.38;22.55;;;;;;;15.68;89.13;101365.63;10083676;28;20054;-71
2021/07/02 04:23:45;;;;;;;40.95;23.60;;;;;;;15.69;89.23;101359.78;10073678;28;20052;-71
2021/07/02 04:28:44;;;;;;;43.08;25.27;;;;;;;15.65;89.38;101371.81;10070227;28;20062;-71
2021/07/02 04:33:43;;;;;;;34.33;23.17;;;;;;;15.54;89.63;101371.41;10069219;28;20039;-68
2021/07/02 04:38:42;;;;;;;33.90;19.73;;;;;;;15.38;89.41;101359.34;10064834;28;20053;-70
2021/07/02 04:43:44;;;;;;;30.67;18.50;;;;;;;15.59;89.05;101371.19;10064135;28;20040;-71
2021/07/02 04:48:46;;;;;;;33.10;18.38;;;;;;;15.72;88.72;101367.41;10072095;28;20570;-68
2021/07/02 04:53:43;;;;;;;32.83;17.90;;;;;;;15.67;88.02;101381.34;10081899;28;20050;-68
2021/07/02 04:58:51;;;;;;;27.45;16.67;;;;;;;15.71;88.15;101373.22;10056930;28;20075;-68
2021/07/02 05:03:51;;;;;;;34.47;19.23;;;;;;;15.74;87.87;101378.91;10082785;28;20039;-69
2021/07/02 05:08:53;;;;;;;27.92;18.73;;;;;;;15.75;87.81;101377.75;10086072;28;20434;-72
2021/07/02 05:13:51;;;;;;;35.83;18.52;;;;;;;15.76;87.44;101384.88;10081119;28;20063;-70
2021/07/02 05:18:48;;;;;;;27.00;18.13;;;;;;;15.83;87.43;101389.03;10074310;28;20538;-70
2021/07/02 05:23:44;;;;;;;27.90;18.85;;;;;;;15.84;87.36;101393.41;10087956;28;20079;-70
2021/07/02 05:28:42;;;;;;;23.80;16.50;;;;;;;15.88;86.98;101391.59;10054192;28;20051;-67
2021/07/02 05:33:39;;;;;;;30.55;17.02;;;;;;;15.84;86.74;101393.41;10085753;28;20039;-67
2021/07/02 05:38:36;;;;;;;25.10;15.82;;;;;;;15.88;86.43;101394.38;10070992;28;20470;-69
2021/07/02 05:43:33;;;;;;;23.40;14.00;;;;;;;15.97;85.73;101392.34;10063507;28;20126;-69
2021/07/02 05:48:32;;;;;;;26.70;15.32;;;;;;;16.18;86.54;101404.16;10057601;28;20403;-68
2021/07/02 05:53:28;;;;;;;24.65;15.40;;;;;;;16.20;84.82;101406.56;10077348;28;20078;-68
2021/07/02 05:58:25;;;;;;;24.52;14.40;;;;;;;16.10;83.68;101404.22;10084977;28;20054;-69
2021/07/02 06:03:21;;;;;;;27.42;14.32;;;;;;;16.12;84.65;101399.97;10078252;28;20052;-68
2021/07/02 06:08:18;;;;;;;27.80;14.00;;;;;;;16.18;83.79;101404.16;10083006;28;20047;-68
2021/07/02 06:13:15;;;;;;;22.88;13.73;;;;;;;16.13;82.82;101407.13;10083205;28;20491;-68
2021/07/02 06:18:12;;;;;;;22.48;13.38;;;;;;;16.27;83.23;101401.31;10078275;28;20047;-69
2021/07/02 06:23:09;;;;;;;26.95;13.95;;;;;;;16.50;83.38;101412.75;10063663;28;20043;-68
2021/07/02 06:28:05;;;;;;;23.92;14.32;;;;;;;16.56;83.14;101419.66;10058933;28;20055;-67
2021/07/02 06:33:02;;;;;;;24.05;14.30;;;;;;;16.46;82.60;101409.06;10073433;28;21166;-68
2021/07/02 06:37:59;;;;;;;24.90;13.93;;;;;;;16.59;82.51;101418.16;10067111;28;20044;-68
2021/07/02 06:42:55;;;;;;;25.95;15.13;;;;;;;16.65;82.09;101416.00;10080061;28;20047;-68
2021/07/02 06:47:55;;;;;;;21.98;14.70;;;;;;;16.55;81.66;101415.28;10076345;28;20396;-67
2021/07/02 06:52:52;;;;;;;26.10;15.07;;;;;;;16.74;82.20;101408.44;10074923;28;20039;-68
2021/07/02 06:57:49;;;;;;;21.85;13.85;;;;;;;16.84;81.96;101413.53;10077794;28;20058;-68
2021/07/02 07:02:48;;;;;;;19.73;14.07;;;;;;;16.87;82.07;101412.81;10074181;28;20073;-68
2021/07/02 07:07:45;;;;;;;22.33;14.10;;;;;;;16.96;81.85;101407.22;10069121;28;20055;-68
2021/07/02 07:12:43;;;;;;;21.17;12.77;;;;;;;16.94;78.84;101415.03;10070185;28;20043;-68
2021/07/02 07:17:41;;;;;;;22.73;12.65;;;;;;;17.12;79.08;101418.38;10072842;28;20066;-68
2021/07/02 07:22:38;;;;;;;19.35;12.82;;;;;;;17.16;78.95;101414.59;10057949;28;20525;-68
2021/07/02 07:27:36;;;;;;;21.30;13.23;;;;;;;17.13;78.91;101408.97;10069172;28;20043;-67
2021/07/02 07:32:34;;;;;;;21.83;13.30;;;;;;;17.30;78.63;101413.44;10056599;28;20047;-69
2021/07/02 07:37:35;;;;;;;19.98;13.23;;;;;;;17.36;76.73;101418.38;10065642;28;20098;-67
2021/07/02 07:42:31;;;;;;;21.45;12.80;;;;;;;17.35;77.14;101422.28;10072575;28;20451;-67
2021/07/02 07:47:28;;;;;;;18.10;13.02;;;;;;;17.44;76.65;101422.97;10068459;28;20043;-67
2021/07/02 07:52:36;;;;;;;22.55;14.27;;;;;;;17.45;76.54;101427.34;10069351;28;20463;-67
2021/07/02 07:57:34;;;;;;;21.63;14.52;;;;;;;17.68;76.07;101415.78;10070709;28;20058;-70
2021/07/02 08:02:30;;;;;;;24.90;14.30;;;;;;;17.66;75.90;101421.69;10064043;28;20668;-67
2021/07/02 08:07:34;;;;;;;19.50;14.02;;;;;;;17.70;76.50;101423.72;10068030;28;20106;-71
2021/07/02 08:12:31;;;;;;;23.48;13.63;;;;;;;17.66;75.60;101424.44;10048386;28;20050;-70
2021/07/02 08:17:29;;;;;;;18.90;12.75;;;;;;;17.93;75.25;101429.59;10073056;28;20062;-70
2021/07/02 08:22:26;;;;;;;23.10;12.73;;;;;;;18.07;73.44;101430.00;10065455;28;20055;-72
2021/07/02 08:27:25;;;;;;;17.52;13.05;;;;;;;18.21;72.77;101424.84;10052996;28;20047;-69
2021/07/02 08:32:21;;;;;;;18.35;12.55;;;;;;;18.25;73.23;101430.50;10068740;28;20059;-69
2021/07/02 08:37:18;;;;;;;16.08;11.85;;;;;;;18.33;71.84;101426.75;10069599;28;20419;-68
2021/07/02 08:42:15;;;;;;;15.93;11.30;;;;;;;18.33;70.79;101437.03;10068758;28;20504;-68
2021/07/02 08:47:14;;;;;;;17.88;12.60;;;;;;;18.44;71.28;101424.28;10064997;28;20138;-69
2021/07/02 08:52:11;;;;;;;20.35;13.15;;;;;;;18.44;70.33;101427.84;10043603;28;20039;-69
2021/07/02 08:57:09;;;;;;;17.35;11.35;;;;;;;18.66;70.03;101434.78;10053701;28;20087;-69
2021/07/02 09:02:25;;;;;;;18.40;11.40;;;;;;;18.77;69.09;101420.44;10046476;28;20062;-69
2021/07/02 09:07:21;;;;;;;14.90;10.93;;;;;;;18.97;69.38;101433.22;10057084;28;20512;-67
2021/07/02 09:12:25;;;;;;;11.75;8.15;;;;;;;18.77;66.64;101431.50;10046669;28;20724;-68
2021/07/02 09:17:23;;;;;;;;;;;;;;;18.79;70.43;101438.28;10063782;28;20065;-68
2021/07/02 09:22:21;;;;;;;21.58;16.73;;;;;;;19.02;71.72;101440.47;10066551;28;19937;-68
2021/07/02 09:27:26;;;;;;;23.05;14.73;;;;;;;19.25;69.53;101451.72;10045543;28;20435;-67
2021/07/02 09:32:22;;;;;;;19.40;14.48;;;;;;;19.39;70.20;101449.28;10069860;28;20058;-67
2021/07/02 09:37:28;;;;;;;20.08;12.95;;;;;;;19.71;69.26;101443.69;10074485;28;20053;-69
2021/07/02 09:42:29;;;;;;;17.23;12.00;;;;;;;19.91;66.72;101453.66;10079008;28;20050;-67
2021/07/02 09:47:29;;;;;;;20.05;13.07;;;;;;;20.25;64.64;101450.34;10069843;28;20427;-69
2021/07/02 09:52:25;;;;;;;18.73;11.48;;;;;;;19.96;63.63;101453.34;10080168;28;20051;-67
2021/07/02 09:57:22;;;;;;;20.33;12.15;;;;;;;19.73;65.05;101452.47;10062619;28;20051;-69
2021/07/02 10:02:20;;;;;;;18.20;12.43;;;;;;;19.49;66.27;101459.00;10079421;28;20050;-67
2021/07/02 10:07:17;;;;;;;20.30;13.40;;;;;;;19.33;66.24;101451.53;10084589;28;20748;-67
2021/07/02 10:12:14;;;;;;;18.48;10.93;;;;;;;19.57;63.94;101454.44;10065137;28;20043;-70
2021/07/02 10:17:10;;;;;;;17.17;11.65;;;;;;;20.55;63.22;101456.09;10073195;28;20055;-67
2021/07/02 10:22:09;;;;;;;16.02;11.15;;;;;;;21.14;61.23;101467.88;10084395;28;20045;-67
2021/07/02 10:27:07;;;;;;;18.10;12.40;;;;;;;21.51;60.25;101468.09;10071975;28;20047;-70
2021/07/02 10:32:04;;;;;;;15.20;10.63;;;;;;;20.88;61.20;101474.19;10075629;28;20526;-69
2021/07/02 10:37:02;;;;;;;17.85;11.43;;;;;;;21.53;58.74;101476.88;10064919;28;20051;-68
2021/07/02 10:42:13;;;;;;;12.32;9.68;;;;;;;23.19;54.40;101465.69;10081954;28;20054;-68
2021/07/02 10:47:10;;;;;;;15.13;8.88;;;;;;;22.56;52.17;101468.28;10067898;28;20521;-68
2021/07/02 10:52:28;;;;;;;13.48;9.25;;;;;;;21.94;55.37;101460.34;10055563;28;20138;-68
2021/07/02 10:57:27;;;;;;;13.35;8.90;;;;;;;21.99;53.28;101467.56;10063241;28;20067;-70
2021/07/02 11:02:25;;;;;;;13.30;8.95;;;;;;;22.71;53.27;101460.84;10051840;28;20109;-68
2021/07/02 11:07:22;;;;;;;12.85;9.02;;;;;;;22.32;54.40;101464.00;10068672;28;20058;-68
2021/07/02 11:12:26;;;;;;;11.30;8.07;;;;;;;23.14;53.03;101458.47;10066038;28;20074;-67
2021/07/02 11:17:45;;;;;;;11.70;8.77;;;;;;;22.70;53.65;101456.47;10072473;28;20135;-69
2021/07/02 11:22:44;;;;;;;13.52;9.07;;;;;;;21.84;55.22;101459.03;10050839;28;20062;-69
2021/07/02 11:27:57;;;;;;;11.05;7.40;;;;;;;22.50;54.25;101457.84;10067731;28;20463;-70
2021/07/02 11:32:57;;;;;;;12.45;7.70;;;;;;;23.17;51.05;101451.34;10056121;28;20059;-69
2021/07/02 11:38:21;;;;;;;14.13;8.35;;;;;;;23.37;49.88;101454.66;10070283;28;20094;-70
2021/07/02 11:43:31;;;;;;;14.40;8.48;;;;;;;22.76;52.90;101457.72;10080596;28;20050;-69
2021/07/02 11:48:30;;;;;;;17.30;8.82;;;;;;;21.85;54.40;101470.97;10063733;28;20047;-68
2021/07/02 11:53:46;;;;;;;11.52;7.57;;;;;;;22.34;52.37;101470.00;10072427;28;20609;-68
2021/07/02 11:58:52;;;;;;;12.45;8.07;;;;;;;23.02;52.11;101461.56;10072638;28;20047;-69
2021/07/02 12:03:58;;;;;;;11.90;7.30;;;;;;;22.59;52.43;101455.56;10073647;28;20462;-69
2021/07/02 12:09:06;;;;;;;11.68;7.85;;;;;;;22.25;52.93;101463.94;10066379;28;20075;-69
2021/07/02 12:14:04;;;;;;;10.38;7.88;;;;;;;22.77;51.91;101456.53;10064203;28;20093;-69
2021/07/02 12:19:05;;;;;;;13.10;8.30;;;;;;;22.20;53.86;101464.25;10074636;28;20046;-70
2021/07/02 12:24:07;;;;;;;10.82;6.55;;;;;;;23.17;50.02;101457.69;10073132;28;20114;-69
2021/07/02 12:29:11;;;;;;;9.90;6.63;;;;;;;23.02;49.38;101461.56;10065452;28;20528;-69
2021/07/02 12:34:13;;;;;;;11.77;7.03;;;;;;;22.68;51.02;101481.13;10074526;28;20043;-68
2021/07/02 12:39:12;;;;;;;11.97;6.50;;;;;;;22.60;50.99;101473.88;10075603;28;20192;-68
2021/07/02 12:44:11;;;;;;;11.48;5.63;;;;;;;22.31;52.42;101473.56;10068799;28;20175;-68
2021/07/02 12:49:29;;;;;;;9.35;5.47;;;;;;;22.38;52.10;101473.66;10081230;28;20530;-69
2021/07/02 12:54:57;;;;;;;10.75;6.15;;;;;;;21.93;52.97;101481.03;10065316;28;20569;-69
2021/07/02 12:59:59;;;;;;;9.20;5.43;;;;;;;22.12;52.18;101482.84;10066534;28;20047;-68
2021/07/02 13:04:59;;;;;;;8.57;4.57;;;;;;;22.36;51.82;101476.00;10061089;28;20102;-69
2021/07/02 13:10:10;;;;;;;10.73;5.28;;;;;;;22.38;52.18;101472.84;10068332;28;20055;-69
2021/07/02 13:15:09;;;;;;;11.25;5.53;;;;;;;22.63;49.59;101489.84;10051475;28;20065;-69
2021/07/02 13:20:06;;;;;;;8.10;4.57;;;;;;;22.83;50.59;101471.72;10084034;28;20466;-69
2021/07/02 13:25:05;;;;;;;9.15;5.50;;;;;;;22.54;51.17;101481.00;10079949;28;20054;-68
2021/07/02 13:30:08;;;;;;;10.63;4.95;;;;;;;22.28;52.19;101485.47;10076917;28;20054;-68
2021/07/02 13:35:22;;;;;;;9.95;5.57;;;;;;;22.49;52.81;101479.34;10071153;28;20051;-69
2021/07/02 13:40:41;;;;;;;9.88;5.25;;;;;;;22.39;52.45;101469.66;10079603;28;20075;-70
2021/07/02 13:45:38;;;;;;;8.80;4.55;;;;;;;22.44;50.84;101474.91;10074416;28;20522;-69
2021/07/02 13:50:40;;;;;;;8.55;5.13;;;;;;;22.34;51.94;101483.94;10076458;28;20163;-71
2021/07/02 13:55:36;;;;;;;8.38;5.55;;;;;;;22.28;52.31;101485.47;10068377;28;20865;-69
2021/07/02 14:00:33;;;;;;;8.43;5.72;;;;;;;22.36;52.68;101476.00;10072802;28;21759;-69
2021/07/02 14:05:30;;;;;;;9.38;5.85;;;;;;;22.66;52.13;101480.72;10073523;28;20051;-68
2021/07/02 14:10:28;;;;;;;11.25;5.55;;;;;;;22.43;50.71;101494.78;10087445;28;20043;-69
2021/07/02 14:15:26;;;;;;;8.07;5.05;;;;;;;22.18;52.47;101491.66;10061226;28;20047;-68
2021/07/02 14:20:23;;;;;;;9.40;5.53;;;;;;;21.99;54.83;101496.19;10079455;28;20106;-69
2021/07/02 14:25:23;;;;;;;11.27;6.07;;;;;;;21.49;56.90;101506.63;10074700;28;20432;-68
2021/07/02 14:30:20;;;;;;;10.20;6.78;;;;;;;21.44;57.52;101504.16;10075489;28;20055;-70
2021/07/02 14:35:19;;;;;;;12.52;6.68;;;;;;;21.45;57.72;101511.34;10084811;28;20070;-69
2021/07/02 14:40:16;;;;;;;11.88;6.72;;;;;;;21.32;58.38;101507.09;10086683;28;20428;-70
2021/07/02 14:45:13;;;;;;;12.02;6.40;;;;;;;21.09;59.40;101505.13;10079356;28;20192;-68
2021/07/02 14:50:10;;;;;;;12.50;6.05;;;;;;;21.16;59.40;101510.00;10063092;28;20562;-68
2021/07/02 14:55:07;;;;;;;13.98;6.65;;;;;;;21.36;58.83;101511.56;10066062;28;20455;-68
2021/07/02 15:00:05;;;;;;;10.07;5.57;;;;;;;21.45;57.83;101514.13;10073732;28;20055;-69
2021/07/02 15:05:03;;;;;;;11.70;5.50;;;;;;;21.67;57.44;101512.44;10068208;28;20110;-69
2021/07/02 15:09:59;;;;;;;14.25;6.75;;;;;;;21.62;58.74;101505.22;10072906;28;20134;-68
2021/07/02 15:14:56;;;;;;;12.75;5.97;;;;;;;21.60;59.81;101510.34;10062952;28;20092;-69
2021/07/02 15:19:52;;;;;;;15.23;6.60;;;;;;;21.41;58.58;101510.47;10043955;28;20134;-68
2021/07/02 15:24:49;;;;;;;12.10;6.32;;;;;;;21.31;58.65;101506.31;10077753;28;20047;-68
2021/07/02 15:30:23;;;;;;;10.20;5.43;;;;;;;21.84;57.70;101508.34;10073565;28;20071;-68
2021/07/02 15:35:19;;;;;;;;;;;;;;;21.77;57.29;101505.44;10077757;28;20071;-68
2021/07/02 15:40:16;;;;;;;10.10;5.65;;;;;;;21.97;57.00;101508.91;10066455;28;20574;-68
2021/07/02 15:45:13;;;;;;;16.92;6.53;;;;;;;21.80;56.76;101499.13;10076524;28;20850;-67
2021/07/02 15:50:09;;;;;;;11.88;6.30;;;;;;;21.65;56.57;101498.09;10071268;28;20519;-67
2021/07/02 15:55:07;;;;;;;9.77;5.78;;;;;;;21.90;56.84;101498.47;10074626;28;20054;-66
2021/07/02 16:00:06;;;;;;;11.35;5.70;;;;;;;22.28;55.02;101504.97;10071325;28;20054;-65
2021/07/02 16:05:03;;;;;;;9.65;5.75;;;;;;;22.83;54.11;101510.75;10061489;28;20435;-66
2021/07/02 16:10:00;;;;;;;12.55;5.22;;;;;;;23.26;52.21;101499.22;10064766;28;20042;-65
2021/07/02 16:14:56;;;;;;;9.77;4.82;;;;;;;23.03;53.12;101502.22;10070580;28;20149;-66
2021/07/02 16:19:53;;;;;;;19.88;13.15;;;;;;;22.66;54.48;101512.16;10062166;28;20142;-65
2021/07/02 16:24:49;;;;;;;10.30;6.38;;;;;;;22.12;54.70;101515.44;10068418;28;20585;-68
2021/07/02 16:29:46;;;;;;;14.68;8.70;;;;;;;21.89;56.25;101513.56;10060516;28;20499;-67
2021/07/02 16:34:42;;;;;;;11.02;5.07;;;;;;;21.76;56.46;101520.53;10067412;28;20458;-67
2021/07/02 16:39:39;;;;;;;9.02;4.80;;;;;;;21.83;56.36;101512.28;10056673;28;20086;-68
2021/07/02 16:44:36;;;;;;;8.88;4.32;;;;;;;21.81;57.05;101520.22;10073742;28;20640;-67
2021/07/02 16:49:33;;;;;;;14.70;5.07;;;;;;;21.58;57.05;101521.09;10072193;28;20129;-67
2021/07/02 16:54:29;;;;;;;12.77;5.35;;;;;;;21.20;57.59;101528.38;10086442;28;20126;-67
2021/07/02 16:59:26;;;;;;;11.88;5.03;;;;;;;21.08;58.01;101522.19;10073477;28;20075;-67
2021/07/02 17:04:23;;;;;;;9.10;4.75;;;;;;;20.92;58.33;101516.75;10070582;28;20059;-68
2021/07/02 17:09:21;;;;;;;13.57;5.07;;;;;;;21.07;59.13;101518.59;10071552;28;20051;-68
2021/07/02 17:14:19;;;;;;;12.35;5.10;;;;;;;21.55;58.93;101516.25;10048225;28;20054;-68
2021/07/02 17:19:15;;;;;;;8.60;4.68;;;;;;;21.75;58.27;101513.38;10074622;28;20618;-67
2021/07/02 17:24:12;;;;;;;9.55;4.82;;;;;;;21.60;57.89;101524.28;10073401;28;20587;-67
2021/07/02 17:29:12;;;;;;;11.40;6.05;;;;;;;21.57;56.45;101530.59;10062771;28;20055;-67
2021/07/02 17:34:08;;;;;;;8.73;4.38;;;;;;;21.72;56.54;101530.81;10074444;28;20147;-68
2021/07/02 17:39:05;;;;;;;8.30;4.50;;;;;;;21.99;55.13;101528.81;10069522;28;20523;-68
2021/07/02 17:44:03;;;;;;;8.85;4.88;;;;;;;21.57;55.95;101547.28;10057476;28;20081;-67
2021/07/02 17:49:00;;;;;;;11.07;5.22;;;;;;;21.98;54.94;101539.16;10078325;28;20046;-68
2021/07/02 17:53:57;;;;;;;9.20;4.30;;;;;;;21.63;54.53;101551.38;10062745;28;20086;-68
2021/07/02 17:58:53;;;;;;;9.00;4.53;;;;;;;21.30;55.64;101551.97;10074462;28;20043;-67
2021/07/02 18:03:50;;;;;;;9.88;4.97;;;;;;;21.99;53.37;101545.53;10074941;28;20054;-68
2021/07/02 18:08:47;;;;;;;7.55;4.60;;;;;;;22.05;52.81;101544.81;10064011;28;20134;-70
2021/07/02 18:13:46;;;;;;;8.32;4.57;;;;;;;21.76;54.99;101548.38;10058216;28;20199;-68
2021/07/02 18:18:43;;;;;;;8.60;4.18;;;;;;;21.44;54.85;101537.53;10064714;28;20066;-67
2021/07/02 18:23:39;;;;;;;9.80;4.53;;;;;;;21.26;55.46;101539.19;10073519;28;20074;-67
2021/07/02 18:28:36;;;;;;;10.25;4.10;;;;;;;21.04;56.33;101540.78;10049929;28;20053;-68
2021/07/02 18:33:32;;;;;;;9.70;4.47;;;;;;;20.89;57.06;101551.66;10075949;28;20076;-67
2021/07/02 18:38:29;;;;;;;7.50;4.53;;;;;;;20.87;56.90;101551.22;10086992;28;20101;-68
2021/07/02 18:43:25;;;;;;;10.70;5.70;;;;;;;20.66;56.86;101548.81;10079849;28;20078;-68
2021/07/02 18:48:22;;;;;;;9.18;4.55;;;;;;;20.51;56.66;101558.78;10066342;28;20062;-65
2021/07/02 18:53:19;;;;;;;8.35;4.50;;;;;;;20.27;57.23;101559.88;10064133;28;20043;-68
2021/07/02 18:58:15;;;;;;;8.55;4.72;;;;;;;20.18;57.63;101551.75;10070954;28;20778;-69
2021/07/02 19:03:12;;;;;;;10.48;5.72;;;;;;;20.11;57.85;101559.94;10075557;28;20126;-69
2021/07/02 19:08:08;;;;;;;14.73;5.30;;;;;;;20.10;58.45;101560.31;10072494;28;20125;-68
2021/07/02 19:13:05;;;;;;;10.38;4.20;;;;;;;19.84;59.85;101558.94;10076787;28;20138;-68
2021/07/02 19:18:02;;;;;;;12.18;4.95;;;;;;;19.90;59.60;101574.13;10067454;28;20684;-68
2021/07/02 19:23:03;;;;;;;9.63;4.57;;;;;;;19.88;60.10;101570.91;10077684;28;20469;-68
2021/07/02 19:28:00;;;;;;;8.05;4.28;;;;;;;19.75;59.61;101566.66;10065100;28;20038;-68
2021/07/02 19:32:57;;;;;;;8.80;4.40;;;;;;;19.51;60.78;101573.16;10067471;28;20106;-68
2021/07/02 19:37:55;;;;;;;9.85;4.45;;;;;;;19.55;60.68;101569.31;10063857;28;20054;-68
2021/07/02 19:42:53;;;;;;;11.93;4.30;;;;;;;19.43;60.56;101565.84;10065630;28;20078;-67
2021/07/02 19:47:50;;;;;;;10.40;5.35;;;;;;;19.44;60.38;101568.22;10070806;28;20497;-68
2021/07/02 19:52:47;;;;;;;8.35;4.65;;;;;;;19.25;61.15;101576.47;10079358;28;20134;-68
2021/07/02 19:57:43;;;;;;;9.90;4.57;;;;;;;19.16;61.55;101573.06;10076463;28;20043;-69
2021/07/02 20:02:42;;;;;;;8.73;3.83;;;;;;;19.08;61.16;101572.06;10074784;28;20043;-69
2021/07/02 20:07:39;;;;;;;7.43;4.45;;;;;;;18.93;60.63;101566.13;10063883;28;20051;-68
2021/07/02 20:12:37;;;;;;;11.43;4.85;;;;;;;18.81;60.49;101580.03;10058947;28;20134;-69
2021/07/02 20:17:37;;;;;;;6.93;4.10;;;;;;;18.80;60.89;101577.63;10067044;28;20047;-69
2021/07/02 20:22:37;;;;;;;8.23;4.22;;;;;;;18.75;61.17;101586.94;10072297;28;20073;-68
2021/07/02 20:27:34;;;;;;;8.63;4.35;;;;;;;18.61;61.41;101586.56;10075163;28;20142;-68
2021/07/02 20:32:31;;;;;;;8.45;4.07;;;;;;;18.63;61.65;101590.56;10072963;28;20059;-68
2021/07/02 20:37:28;;;;;;;8.30;3.60;;;;;;;18.47;61.67;101592.47;10061202;28;20094;-68
2021/07/02 20:42:24;;;;;;;6.75;4.10;;;;;;;18.45;61.46;101592.00;10072639;28;20101;-68
2021/07/02 20:47:21;;;;;;;9.73;5.70;;;;;;;18.36;61.15;101585.84;10066291;28;20157;-69
2021/07/02 20:52:17;;;;;;;7.38;3.60;;;;;;;18.32;61.62;101573.84;10066107;28;20118;-69
2021/07/02 20:57:14;;;;;;;6.20;3.72;;;;;;;18.24;62.52;101581.94;10054765;28;20684;-68
2021/07/02 21:02:10;;;;;;;8.75;5.15;;;;;;;18.27;62.00;101578.47;10067667;28;20047;-68
2021/07/02 21:07:07;;;;;;;9.52;4.30;;;;;;;18.15;61.20;101580.44;10071588;28;20151;-68
2021/07/02 21:12:04;;;;;;;8.10;4.78;;;;;;;18.13;61.22;101589.09;10072544;28;20047;-69
2021/07/02 21:17:01;;;;;;;6.53;4.25;;;;;;;18.10;61.60;101589.78;10067987;28;20134;-68
2021/07/02 21:22:00;;;;;;;10.13;4.35;;;;;;;18.13;61.66;101583.56;10064283;28;20105;-69
2021/07/02 21:26:57;;;;;;;8.00;4.40;;;;;;;18.13;61.62;101580.81;10062852;28;20087;-69
2021/07/02 21:31:53;;;;;;;13.77;6.47;;;;;;;18.12;62.41;101581.94;10076264;28;20047;-68
2021/07/02 21:36:50;;;;;;;8.30;4.03;;;;;;;18.14;62.86;101585.16;10063547;28;20093;-69
2021/07/02 21:41:47;;;;;;;10.95;4.28;;;;;;;18.08;64.06;101578.28;10062343;28;20047;-72
2021/07/02 21:46:43;;;;;;;7.47;4.10;;;;;;;18.05;64.61;101582.53;10055685;28;20051;-70
2021/07/02 21:51:40;;;;;;;11.23;4.90;;;;;;;18.02;65.83;101580.47;10070472;28;20063;-70
2021/07/02 21:56:36;;;;;;;12.82;5.32;;;;;;;17.96;66.63;101578.28;10061921;28;20055;-70
2021/07/02 22:01:32;;;;;;;14.68;5.85;;;;;;;17.86;67.45;101574.81;10055152;28;20101;-70
2021/07/02 22:06:31;;;;;;;10.48;5.18;;;;;;;17.77;67.94;101582.41;10074158;28;20059;-71
2021/07/02 22:11:27;;;;;;;9.40;4.45;;;;;;;17.81;68.20;101582.56;10065771;28;20142;-70
2021/07/02 22:16:24;;;;;;;16.63;8.45;;;;;;;17.79;68.96;101582.88;10059104;28;20464;-71
2021/07/02 22:21:22;;;;;;;9.65;4.75;;;;;;;17.69;69.33;101591.63;10045379;28;20054;-69
2021/07/02 22:26:19;;;;;;;11.30;5.78;;;;;;;17.73;69.28;101578.72;10064341;28;20643;-71
2021/07/02 22:31:15;;;;;;;14.82;5.55;;;;;;;17.65;70.02;101587.94;10070765;28;20510;-68
2021/07/02 22:36:12;;;;;;;9.13;5.53;;;;;;;17.52;70.43;101581.59;10065577;28;20058;-70
2021/07/02 22:41:09;;;;;;;11.20;5.70;;;;;;;17.44;71.05;101586.06;10067647;28;20086;-70
2021/07/02 22:46:06;;;;;;;11.90;6.80;;;;;;;17.42;71.95;101593.88;10053534;28;20081;-71